Aviation Digital Data Service (ADDS)

Output produced by METARs form (1924 UTC 27 May 2017)
found at http://aviationweather.gov/adds/metars/
 
KRUT 271739Z 2718/2818 VRB04KT P6SM BKN040 
     FM280000 13005KT P6SM SKC 
     FM281500 20005KT P6SM FEW040